Time;durP1;ratioP1;P1;durP2;ratioP2;P2;SDS_P1;SDS_P2;PMS_P1;PMS_P2;Temp;Humidity;BMP_temperature;BMP_pressure;BME280_temperature;BME280_humidity;BME280_pressure;Samples;Min_cycle;Max_cycle;Signal;HPM_P1;HPM_P2
2024/01/04 00:00:45;;;;;;;;;;;;;;;8.94;69.44;96189.50;5103937;28;19920;-61
2024/01/04 00:03:33;;;;;;;;;;;;;;;8.97;69.41;96188.03;5098516;28;19926;-61
2024/01/04 00:06:21;;;;;;;;;;;;;;;8.97;68.97;96188.03;5097912;28;19931;-61
2024/01/04 00:09:12;;;;;;;;;;;;;;;9.03;69.20;96198.28;5103093;28;19965;-61
2024/01/04 00:12:00;;;;;;;;;;;;;;;8.85;68.97;96192.34;5091652;28;19924;-61
2024/01/04 00:14:48;;;;;;;;;;;;;;;8.97;68.50;96190.75;5097956;27;19920;-61
2024/01/04 00:17:37;;;;;;;;;;;;;;;8.99;68.03;96193.88;5102239;28;19978;-61
2024/01/04 00:20:26;;;;;;;;;;;;;;;8.85;67.67;96200.47;5104075;27;19932;-61
2024/01/04 00:23:14;;;;;;;;;;;;;;;8.95;67.54;96182.97;5107478;27;19920;-61
2024/01/04 00:26:03;;;;;;;;;;;;;;;8.94;67.67;96192.19;5109659;27;19942;-61
2024/01/04 00:28:52;;;;;;;;;;;;;;;8.89;67.74;96201.38;5110738;27;19927;-61
2024/01/04 00:31:41;;;;;;;;;;;;;;;8.92;66.79;96200.66;5094938;27;19931;-61
2024/01/04 00:34:29;;;;;;;;;;;;;;;8.93;66.74;96194.13;5099044;27;19926;-61
2024/01/04 00:37:17;;;;;;;;;;;;;;;8.93;67.76;96196.03;5086412;28;19944;-67
2024/01/04 00:40:09;;;;;;;;;;;;;;;8.91;67.65;96201.81;5115063;27;19919;-69
2024/01/04 00:42:59;;;;;;;;;;;;;;;8.96;67.11;96202.72;5113795;27;19926;-61
2024/01/04 00:45:47;;;;;;;;;;;;;;;8.98;67.72;96200.44;5097840;27;19939;-61
2024/01/04 00:48:35;;;;;;;;;;;;;;;8.88;68.08;96199.78;5090795;28;20365;-62
2024/01/04 00:51:23;;;;;;;;;;;;;;;8.79;68.20;96201.84;5101758;28;20638;-61
2024/01/04 00:54:12;;;;;;;;;;;;;;;8.84;68.12;96209.72;5103525;27;19923;-62
2024/01/04 00:57:01;;;;;;;;;;;;;;;8.73;68.64;96214.00;5103196;27;19923;-61
2024/01/04 00:59:50;;;;;;;;;;;;;;;8.80;69.30;96219.66;5091565;28;20007;-61
2024/01/04 01:02:38;;;;;;;;;;;;;;;8.81;69.47;96221.22;5100916;27;19920;-66
2024/01/04 01:05:26;;;;;;;;;;;;;;;8.64;70.55;96227.69;5099461;27;20077;-62
2024/01/04 01:08:15;;;;;;;;;;;;;;;8.69;70.34;96232.09;5106443;27;19959;-61
2024/01/04 01:11:04;;;;;;;;;;;;;;;8.70;70.70;96230.94;5097359;28;20341;-62
2024/01/04 01:13:55;;;;;;;;;;;;;;;8.60;70.91;96237.59;5103969;28;19920;-61
2024/01/04 01:16:44;;;;;;;;;;;;;;;8.74;71.11;96237.25;5091873;28;20181;-61
2024/01/04 01:19:33;;;;;;;;;;;;;;;8.60;70.95;96242.22;5095622;28;20387;-61
2024/01/04 01:22:24;;;;;;;;;;;;;;;8.61;71.41;96241.09;5101860;28;20446;-61
2024/01/04 01:25:12;;;;;;;;;;;;;;;8.59;72.20;96246.84;5099248;28;19939;-61
2024/01/04 01:28:00;;;;;;;;;;;;;;;8.51;72.84;96233.44;5105078;27;19936;-61
2024/01/04 01:30:49;;;;;;;;;;;;;;;8.54;72.67;96232.75;5106731;28;20453;-61
2024/01/04 01:33:42;;;;;;;;;;;;;;;8.64;72.66;96237.72;5101431;28;19931;-61
2024/01/04 01:36:31;;;;;;;;;;;;;;;8.57;72.53;96237.47;5111655;27;19920;-61
2024/01/04 01:39:19;;;;;;;;;;;;;;;8.55;72.55;96237.03;5102083;28;19924;-61
2024/01/04 01:42:07;;;;;;;;;;;;;;;8.54;72.37;96236.25;5089344;28;19920;-61
2024/01/04 01:44:55;;;;;;;;;;;;;;;8.60;72.54;96231.41;5121130;27;19978;-61
2024/01/04 01:47:44;;;;;;;;;;;;;;;8.53;71.93;96220.38;5108998;28;19930;-61
2024/01/04 01:50:34;;;;;;;;;;;;;;;8.50;72.08;96227.22;5107852;28;19920;-61
2024/01/04 01:53:24;;;;;;;;;;;;;;;8.54;71.60;96227.34;5102989;28;20442;-61
2024/01/04 01:56:12;;;;;;;;;;;;;;;8.57;71.40;96232.06;5086600;28;19935;-61
2024/01/04 01:59:01;;;;;;;;;;;;;;;8.55;71.02;96237.03;5111481;27;19942;-61
2024/01/04 02:01:51;;;;;;;;;;;;;;;8.54;71.30;96230.84;5089198;28;20054;-62
2024/01/04 02:04:40;;;;;;;;;;;;;;;8.33;72.05;96233.63;5103947;28;19920;-61
2024/01/04 02:07:29;;;;;;;;;;;;;;;8.54;71.68;96222.72;5101172;28;20042;-61
2024/01/04 02:10:19;;;;;;;;;;;;;;;8.47;71.30;96232.50;5104255;27;19920;-61
2024/01/04 02:13:09;;;;;;;;;;;;;;;8.44;71.68;96234.00;5106757;27;20053;-61
2024/01/04 02:15:57;;;;;;;;;;;;;;;8.51;71.38;96241.53;5111382;27;20378;-61
2024/01/04 02:18:49;;;;;;;;;;;;;;;8.40;71.27;96243.91;5094810;27;19945;-61
2024/01/04 02:21:37;;;;;;;;;;;;;;;8.51;72.02;96238.84;5107743;27;19947;-61
2024/01/04 02:24:27;;;;;;;;;;;;;;;8.52;72.51;96238.53;5089740;28;20255;-61
2024/01/04 02:27:15;;;;;;;;;;;;;;;8.51;72.09;96246.97;5104726;27;19934;-61
2024/01/04 02:30:03;;;;;;;;;;;;;;;8.38;72.85;96241.53;5095113;27;19981;-61
2024/01/04 02:32:51;;;;;;;;;;;;;;;8.40;73.39;96242.00;5105336;27;19927;-61
2024/01/04 02:35:40;;;;;;;;;;;;;;;8.38;73.71;96246.19;5094952;28;19977;-61
2024/01/04 02:38:28;;;;;;;;;;;;;;;8.26;72.40;96255.03;5103526;27;19920;-61
2024/01/04 02:41:17;;;;;;;;;;;;;;;8.37;73.41;96266.25;5108581;27;19927;-61
2024/01/04 02:44:05;;;;;;;;;;;;;;;8.36;72.65;96260.06;5092607;27;19920;-61
2024/01/04 02:46:56;;;;;;;;;;;;;;;8.23;73.26;96261.13;5107583;28;20530;-61
2024/01/04 02:49:44;;;;;;;;;;;;;;;8.36;73.06;96268.16;5087152;28;19995;-61
2024/01/04 02:52:32;;;;;;;;;;;;;;;8.30;73.34;96268.66;5099236;28;19924;-60
2024/01/04 02:55:23;;;;;;;;;;;;;;;8.30;73.35;96260.56;5084332;28;20016;-63
2024/01/04 02:58:14;;;;;;;;;;;;;;;8.24;73.20;96265.41;5115835;27;20322;-62
2024/01/04 03:01:02;;;;;;;;;;;;;;;8.10;74.59;96275.75;5098674;28;20278;-63
2024/01/04 03:04:42;;;;;;;;;;;;;;;7.98;75.00;96264.88;5103163;27;19920;-62
2024/01/04 03:07:31;;;;;;;;;;;;;;;7.94;75.82;96266.72;5097371;28;20276;-60
2024/01/04 03:10:19;;;;;;;;;;;;;;;8.01;75.68;96269.63;5100286;27;19920;-60
2024/01/04 03:13:08;;;;;;;;;;;;;;;8.05;75.97;96278.69;5100916;27;20317;-61
2024/01/04 03:15:56;;;;;;;;;;;;;;;8.08;75.32;96278.00;5119641;27;20272;-61
2024/01/04 03:18:44;;;;;;;;;;;;;;;8.10;75.48;96278.47;5118022;27;19924;-61
2024/01/04 03:21:32;;;;;;;;;;;;;;;8.08;75.33;96278.00;5117825;27;19927;-61
2024/01/04 03:24:20;;;;;;;;;;;;;;;8.02;76.22;96282.81;5113253;27;19931;-61
2024/01/04 03:27:12;;;;;;;;;;;;;;;8.07;75.71;96284.53;5109942;28;19924;-61
2024/01/04 03:30:00;;;;;;;;;;;;;;;8.12;75.77;96298.63;5111493;27;19951;-61
2024/01/04 03:32:50;;;;;;;;;;;;;;;8.12;76.27;96309.44;5112814;27;20010;-61
2024/01/04 03:35:38;;;;;;;;;;;;;;;8.10;76.26;96306.28;5104667;27;19927;-61
2024/01/04 03:38:27;;;;;;;;;;;;;;;8.02;75.92;96306.38;5109490;27;19923;-61
2024/01/04 03:41:15;;;;;;;;;;;;;;;8.04;76.29;96313.03;5098438;28;19919;-61
2024/01/04 03:44:03;;;;;;;;;;;;;;;7.98;76.98;96310.84;5101128;27;20037;-61
2024/01/04 03:46:53;;;;;;;;;;;;;;;7.98;76.67;96316.28;5106197;27;19920;-61
2024/01/04 03:49:42;;;;;;;;;;;;;;;7.99;76.46;96309.72;5110170;27;19979;-61
2024/01/04 03:52:30;;;;;;;;;;;;;;;8.15;76.74;96308.00;5111035;27;19926;-61
2024/01/04 03:55:18;;;;;;;;;;;;;;;8.18;76.95;96310.03;5110588;27;19927;-61
2024/01/04 03:58:07;;;;;;;;;;;;;;;8.23;76.15;96309.81;5099574;27;19977;-61
2024/01/04 04:00:55;;;;;;;;;;;;;;;8.19;76.49;96308.09;5101942;27;19961;-61
2024/01/04 04:03:46;;;;;;;;;;;;;;;8.03;76.36;96322.25;5106349;27;19919;-61
2024/01/04 04:06:35;;;;;;;;;;;;;;;8.12;76.05;96316.78;5105469;27;19931;-61
2024/01/04 04:09:24;;;;;;;;;;;;;;;8.12;76.53;96319.47;5098977;27;19927;-61
2024/01/04 04:12:12;;;;;;;;;;;;;;;8.13;76.53;96326.47;5101700;27;19996;-61
2024/01/04 04:15:00;;;;;;;;;;;;;;;8.10;76.57;96321.75;5107358;27;19919;-61
2024/01/04 04:17:51;;;;;;;;;;;;;;;8.05;76.23;96330.06;5102254;27;20404;-61
2024/01/04 04:20:40;;;;;;;;;;;;;;;8.12;76.27;96319.47;5098433;27;19932;-61
2024/01/04 04:23:29;;;;;;;;;;;;;;;8.08;75.19;96335.56;5099064;27;19931;-61
2024/01/04 04:26:20;;;;;;;;;;;;;;;7.97;74.95;96339.03;5100399;28;19920;-61
2024/01/04 04:29:08;;;;;;;;;;;;;;;7.89;75.75;96338.00;5103497;27;19923;-61
2024/01/04 04:31:57;;;;;;;;;;;;;;;8.01;75.67;96337.25;5102983;27;20272;-61
2024/01/04 04:34:45;;;;;;;;;;;;;;;7.95;75.45;96352.09;5087960;27;20022;-61
2024/01/04 04:37:33;;;;;;;;;;;;;;;7.98;75.04;96352.22;5103538;27;20272;-60
2024/01/04 04:40:22;;;;;;;;;;;;;;;7.97;75.95;96360.66;5106479;27;19926;-60
2024/01/04 04:43:10;;;;;;;;;;;;;;;8.03;75.56;96362.81;5107714;27;20041;-60
2024/01/04 04:45:58;;;;;;;;;;;;;;;7.90;75.14;96365.81;5106943;27;19927;-62
2024/01/04 04:48:47;;;;;;;;;;;;;;;7.87;75.12;96369.97;5105731;28;19919;-62
2024/01/04 04:51:35;;;;;;;;;;;;;;;7.87;75.39;96370.75;5101711;27;20010;-62
2024/01/04 04:54:24;;;;;;;;;;;;;;;7.81;75.55;96371.28;5105740;27;19942;-62
2024/01/04 04:57:14;;;;;;;;;;;;;;;7.88;75.33;96385.88;5107861;27;19943;-62
2024/01/04 05:00:02;;;;;;;;;;;;;;;7.63;75.67;96378.75;5104897;28;20392;-62
2024/01/04 05:02:50;;;;;;;;;;;;;;;7.72;75.03;96379.47;5089054;28;19920;-62
2024/01/04 05:05:38;;;;;;;;;;;;;;;7.90;75.29;96395.56;5101792;28;19920;-62
2024/01/04 05:08:28;;;;;;;;;;;;;;;7.88;74.31;96390.47;5088778;28;20016;-62
2024/01/04 05:11:16;;;;;;;;;;;;;;;8.04;75.24;96409.59;5105991;28;19919;-62
2024/01/04 05:14:05;;;;;;;;;;;;;;;8.25;74.22;96404.94;5103799;28;19920;-62
2024/01/04 05:16:54;;;;;;;;;;;;;;;8.20;74.00;96398.94;5106256;28;19951;-62
2024/01/04 05:19:44;;;;;;;;;;;;;;;8.34;73.59;96405.66;5101688;28;20080;-62
2024/01/04 05:22:32;;;;;;;;;;;;;;;8.34;73.67;96413.78;5105190;28;20007;-60
2024/01/04 05:25:20;;;;;;;;;;;;;;;8.37;73.48;96413.16;5116325;28;20004;-62
2024/01/04 05:28:08;;;;;;;;;;;;;;;8.55;73.37;96408.34;5094307;28;20007;-60
2024/01/04 05:30:57;;;;;;;;;;;;;;;8.48;72.39;96423.56;5102288;28;20040;-60
2024/01/04 05:33:45;;;;;;;;;;;;;;;8.58;73.15;96423.16;5104923;28;19920;-61
2024/01/04 05:36:34;;;;;;;;;;;;;;;8.57;72.41;96427.75;5102079;28;20221;-62
2024/01/04 05:39:22;;;;;;;;;;;;;;;8.60;72.31;96426.31;5111651;28;19924;-60
2024/01/04 05:42:11;;;;;;;;;;;;;;;8.73;72.30;96440.66;5099848;28;19931;-62
2024/01/04 05:45:00;;;;;;;;;;;;;;;8.76;71.99;96434.56;5106889;27;19932;-61
2024/01/04 05:47:50;;;;;;;;;;;;;;;8.65;71.52;96458.56;5110883;27;20048;-60
2024/01/04 05:50:39;;;;;;;;;;;;;;;8.47;71.93;96446.31;5110750;28;19924;-62
2024/01/04 05:53:27;;;;;;;;;;;;;;;8.58;72.45;96482.69;5114826;27;20458;-60
2024/01/04 05:56:15;;;;;;;;;;;;;;;8.55;72.88;96472.53;5120504;27;20312;-61
2024/01/04 05:59:04;;;;;;;;;;;;;;;8.63;72.49;96479.78;5110789;28;19920;-60
2024/01/04 06:01:52;;;;;;;;;;;;;;;8.55;72.55;96484.16;5100163;27;19927;-61
2024/01/04 06:04:42;;;;;;;;;;;;;;;8.62;72.52;96483.59;5109203;27;19919;-61
2024/01/04 06:07:32;;;;;;;;;;;;;;;8.54;72.62;96492.59;5106088;28;20360;-63
2024/01/04 06:10:21;;;;;;;;;;;;;;;8.53;72.68;96499.94;5108344;27;19920;-62
2024/01/04 06:13:09;;;;;;;;;;;;;;;8.50;72.19;96500.59;5106243;28;19942;-62
2024/01/04 06:15:57;;;;;;;;;;;;;;;8.57;72.49;96505.47;5103231;27;19997;-62
2024/01/04 06:18:45;;;;;;;;;;;;;;;8.67;72.57;96521.28;5106133;27;20352;-61
2024/01/04 06:21:35;;;;;;;;;;;;;;;8.62;71.93;96525.00;5108220;27;19976;-61
2024/01/04 06:24:24;;;;;;;;;;;;;;;8.63;71.59;96525.81;5106777;27;19924;-61
2024/01/04 06:27:12;;;;;;;;;;;;;;;8.73;71.87;96530.78;5109286;27;19923;-61
2024/01/04 06:30:01;;;;;;;;;;;;;;;8.79;71.34;96532.19;5107810;27;19920;-61
2024/01/04 06:32:50;;;;;;;;;;;;;;;8.86;71.09;96537.84;5100774;27;19923;-60
2024/01/04 06:35:38;;;;;;;;;;;;;;;8.99;70.51;96540.59;5085312;28;20428;-61
2024/01/04 06:38:27;;;;;;;;;;;;;;;8.99;71.34;96551.41;5106693;27;19932;-61
2024/01/04 06:41:16;;;;;;;;;;;;;;;9.06;70.48;96551.69;5106608;27;20033;-61
2024/01/04 06:44:04;;;;;;;;;;;;;;;8.95;70.61;96558.63;5116797;27;19928;-60
2024/01/04 06:46:54;;;;;;;;;;;;;;;8.93;70.93;96565.19;5106457;27;20428;-61
2024/01/04 06:49:42;;;;;;;;;;;;;;;8.96;70.88;96565.66;5104450;27;19944;-60
2024/01/04 06:52:31;;;;;;;;;;;;;;;8.88;71.10;96567.31;5101947;27;19939;-60
2024/01/04 06:55:21;;;;;;;;;;;;;;;9.06;70.55;96570.66;5092908;27;19919;-60
2024/01/04 06:58:09;;;;;;;;;;;;;;;8.84;70.33;96569.91;5099670;27;19920;-60
2024/01/04 07:00:57;;;;;;;;;;;;;;;8.88;70.56;96572.72;5102917;27;19948;-60
2024/01/04 07:03:46;;;;;;;;;;;;;;;8.89;71.30;96577.81;5107233;28;19991;-62
2024/01/04 07:06:34;;;;;;;;;;;;;;;9.03;70.55;96579.44;5107497;28;19938;-62
2024/01/04 07:09:23;;;;;;;;;;;;;;;8.87;70.44;96588.19;5101601;27;20033;-62
2024/01/04 07:12:15;;;;;;;;;;;;;;;8.86;70.65;96585.81;5101715;27;20058;-61
2024/01/04 07:15:04;;;;;;;;;;;;;;;8.90;71.65;96576.69;5099008;28;19924;-62
2024/01/04 07:17:52;;;;;;;;;;;;;;;8.89;71.63;96588.66;5100999;27;19920;-61
2024/01/04 07:20:41;;;;;;;;;;;;;;;8.94;71.69;96587.63;5107488;28;19932;-62
2024/01/04 07:23:30;;;;;;;;;;;;;;;8.79;71.80;96597.19;5105580;27;20098;-62
2024/01/04 07:26:18;;;;;;;;;;;;;;;8.74;72.39;96600.09;5102229;28;19920;-62
2024/01/04 07:29:08;;;;;;;;;;;;;;;8.70;72.69;96599.16;5096067;28;19919;-62
2024/01/04 07:31:56;;;;;;;;;;;;;;;8.57;72.89;96611.03;5105364;27;19931;-62
2024/01/04 07:34:44;;;;;;;;;;;;;;;8.71;72.29;96608.06;5104549;28;19924;-61
2024/01/04 07:37:40;;;;;;;;;;;;;;;8.72;72.51;96607.72;5110696;28;20069;-61
2024/01/04 07:40:28;;;;;;;;;;;;;;;8.72;72.12;96610.44;5105672;28;19926;-61
2024/01/04 07:43:16;;;;;;;;;;;;;;;8.71;72.68;96611.56;5095608;28;19923;-62
2024/01/04 07:46:05;;;;;;;;;;;;;;;8.79;71.80;96613.44;5102678;28;20368;-62
2024/01/04 07:48:54;;;;;;;;;;;;;;;8.57;72.49;96621.84;5099180;28;19930;-61
2024/01/04 07:51:46;;;;;;;;;;;;;;;8.58;71.81;96626.16;5101085;28;19935;-61
2024/01/04 07:54:34;;;;;;;;;;;;;;;8.54;71.50;96623.31;5099953;27;19928;-62
2024/01/04 07:57:31;;;;;;;;;;;;;;;8.58;71.79;96634.28;5104367;27;19927;-61
2024/01/04 08:00:19;;;;;;;;;;;;;;;8.52;71.53;96636.41;5105080;28;20271;-61
2024/01/04 08:03:09;;;;;;;;;;;;;;;8.65;71.69;96634.56;5100677;28;20034;-61
2024/01/04 08:05:57;;;;;;;;;;;;;;;8.66;71.54;96641.56;5104275;28;19919;-61
2024/01/04 08:08:47;;;;;;;;;;;;;;;8.71;71.10;96644.06;5103171;28;20060;-61
2024/01/04 08:11:35;;;;;;;;;;;;;;;8.72;71.16;96644.84;5104081;28;20272;-61
2024/01/04 08:14:23;;;;;;;;;;;;;;;8.85;70.63;96658.13;5105278;28;19998;-62
2024/01/04 08:17:11;;;;;;;;;;;;;;;8.81;70.71;96659.91;5107809;28;19920;-61
2024/01/04 08:20:01;;;;;;;;;;;;;;;8.84;71.27;96675.53;5100827;28;19937;-61
2024/01/04 08:22:49;;;;;;;;;;;;;;;8.74;70.82;96670.50;5098949;28;19932;-61
2024/01/04 08:25:37;;;;;;;;;;;;;;;8.79;70.84;96673.00;5102456;28;19919;-61
2024/01/04 08:28:25;;;;;;;;;;;;;;;8.85;70.58;96671.69;5093043;28;20296;-61
2024/01/04 08:31:15;;;;;;;;;;;;;;;8.60;71.14;96678.06;5097207;27;19934;-61
2024/01/04 08:34:03;;;;;;;;;;;;;;;8.70;71.32;96688.50;5092684;28;19920;-62
2024/01/04 08:36:53;;;;;;;;;;;;;;;8.83;70.40;96675.81;5094064;28;19924;-62
2024/01/04 08:39:41;;;;;;;;;;;;;;;9.00;70.73;96681.13;5105273;28;19939;-64
2024/01/04 08:42:29;;;;;;;;;;;;;;;9.00;69.64;96683.03;5101012;27;20389;-66
2024/01/04 08:45:18;;;;;;;;;;;;;;;9.11;69.26;96684.25;5098594;28;19920;-61
2024/01/04 08:48:09;;;;;;;;;;;;;;;8.98;69.37;96688.00;5099148;28;22356;-61
2024/01/04 08:50:57;;;;;;;;;;;;;;;9.06;69.28;96687.16;5101684;28;21310;-62
2024/01/04 08:53:49;;;;;;;;;;;;;;;9.20;68.66;96693.06;5098290;28;20017;-62
2024/01/04 08:56:37;;;;;;;;;;;;;;;9.22;68.38;96698.97;5100663;28;19946;-61
2024/01/04 08:59:25;;;;;;;;;;;;;;;9.08;68.71;96696.53;5098124;28;19923;-62
2024/01/04 09:02:14;;;;;;;;;;;;;;;9.07;68.53;96700.34;5099277;28;19920;-61
2024/01/04 09:05:02;;;;;;;;;;;;;;;8.92;69.43;96715.28;5097728;28;19927;-62
2024/01/04 09:07:50;;;;;;;;;;;;;;;9.01;69.24;96711.72;5099667;27;19927;-61
2024/01/04 09:10:40;;;;;;;;;;;;;;;8.94;68.44;96725.78;5099875;28;19920;-61
2024/01/04 09:13:29;;;;;;;;;;;;;;;8.97;69.12;96721.63;5105070;27;19928;-61
2024/01/04 09:16:17;;;;;;;;;;;;;;;9.04;68.91;96722.69;5101913;27;19931;-61
2024/01/04 09:19:06;;;;;;;;;;;;;;;8.97;69.01;96724.34;5100119;28;19954;-61
2024/01/04 09:21:54;;;;;;;;;;;;;;;8.87;69.82;96729.00;5101174;28;20439;-60
2024/01/04 09:24:43;;;;;;;;;;;;;;;8.78;69.93;96747.22;5104237;28;19961;-62
2024/01/04 09:27:35;;;;;;;;;;;;;;;8.77;70.53;96745.63;5106268;28;19920;-62
2024/01/04 09:30:23;;;;;;;;;;;;;;;8.89;71.04;96751.16;5101626;28;19920;-62
2024/01/04 09:33:12;;;;;;;;;;;;;;;8.92;70.82;96769.44;5101507;28;19932;-62
2024/01/04 09:36:00;;;;;;;;;;;;;;;8.74;70.78;96764.47;5103312;28;19972;-59
2024/01/04 09:38:48;;;;;;;;;;;;;;;8.82;71.16;96764.41;5102982;28;19931;-62
2024/01/04 09:41:44;;;;;;;;;;;;;;;8.80;72.29;96771.28;5099905;28;19938;-62
2024/01/04 09:44:34;;;;;;;;;;;;;;;8.72;73.00;96762.06;5097514;28;20084;-59
2024/01/04 09:47:23;;;;;;;;;;;;;;;8.75;72.80;96772.25;5101208;28;19962;-61
2024/01/04 09:50:11;;;;;;;;;;;;;;;8.74;72.89;96776.09;5102683;28;19920;-63
2024/01/04 09:53:00;;;;;;;;;;;;;;;8.69;72.89;96776.28;5091915;28;19920;-62
2024/01/04 09:55:48;;;;;;;;;;;;;;;8.60;74.00;96783.66;5098671;28;20364;-62
2024/01/04 09:58:37;;;;;;;;;;;;;;;8.63;74.24;96788.41;5098842;28;20300;-61
2024/01/04 10:01:29;;;;;;;;;;;;;;;8.60;74.49;96795.25;5102105;28;20313;-61
2024/01/04 10:04:18;;;;;;;;;;;;;;;8.51;74.86;96796.41;5101273;28;20014;-61
2024/01/04 10:07:06;;;;;;;;;;;;;;;8.46;75.16;96800.09;5098110;28;20005;-61
2024/01/04 10:09:57;;;;;;;;;;;;;;;8.44;74.39;96812.38;5100453;28;19924;-62
2024/01/04 10:12:47;;;;;;;;;;;;;;;8.43;74.64;96816.22;5103213;28;19919;-61
2024/01/04 10:15:36;;;;;;;;;;;;;;;8.55;74.42;96824.44;5099741;28;19931;-61
2024/01/04 10:18:29;;;;;;;;;;;;;;;8.53;73.97;96821.25;5101105;28;20361;-61
2024/01/04 10:21:18;;;;;;;;;;;;;;;8.63;73.71;96818.19;5095902;28;19920;-61
2024/01/04 10:24:09;;;;;;;;;;;;;;;8.50;72.12;96817.28;5103533;28;19931;-62
2024/01/04 10:26:57;;;;;;;;;;;;;;;8.51;72.45;96812.66;5106744;28;19919;-62
2024/01/04 10:29:50;;;;;;;;;;;;;;;8.61;71.90;96815.78;5098367;28;20371;-62
2024/01/04 10:32:39;;;;;;;;;;;;;;;8.65;71.43;96818.66;5106045;28;20000;-62
2024/01/04 10:35:29;;;;;;;;;;;;;;;8.44;72.59;96831.31;5107522;28;19927;-61
2024/01/04 10:38:18;;;;;;;;;;;;;;;8.46;72.50;96829.88;5102757;27;19926;-61
2024/01/04 10:41:06;;;;;;;;;;;;;;;8.45;73.24;96833.69;5106194;27;20369;-62
2024/01/04 10:44:03;;;;;;;;;;;;;;;8.29;72.94;96830.69;5109169;27;19919;-62
2024/01/04 10:46:54;;;;;;;;;;;;;;;7.97;75.09;96836.63;5101977;27;20284;-62
2024/01/04 10:49:42;;;;;;;;;;;;;;;8.15;73.98;96835.50;5121853;27;19919;-61
2024/01/04 10:52:32;;;;;;;;;;;;;;;8.34;73.67;96840.53;5099455;27;19920;-60
2024/01/04 10:55:21;;;;;;;;;;;;;;;8.35;73.80;96842.91;5108012;27;20382;-61
2024/01/04 10:58:09;;;;;;;;;;;;;;;8.35;74.11;96837.50;5105403;27;19931;-61
2024/01/04 11:00:57;;;;;;;;;;;;;;;8.34;73.45;96835.94;5102176;27;20306;-60
2024/01/04 11:03:46;;;;;;;;;;;;;;;8.33;74.10;96839.75;5096053;27;19920;-60
2024/01/04 11:06:40;;;;;;;;;;;;;;;8.47;74.60;96850.44;5100368;28;20391;-60
2024/01/04 11:09:29;;;;;;;;;;;;;;;8.40;73.81;96845.47;5105215;28;19926;-66
2024/01/04 11:12:17;;;;;;;;;;;;;;;8.54;74.14;96844.50;5099758;27;19924;-60
2024/01/04 11:15:07;;;;;;;;;;;;;;;8.58;73.67;96850.88;5110167;27;19947;-60
2024/01/04 11:18:07;;;;;;;;;;;;;;;8.65;73.97;96854.66;5102138;28;20357;-60
2024/01/04 11:21:04;;;;;;;;;;;;;;;8.66;74.09;96850.03;5105258;28;19931;-60
2024/01/04 11:23:57;;;;;;;;;;;;;;;8.51;74.02;96850.56;5103698;28;19924;-60
2024/01/04 11:26:49;;;;;;;;;;;;;;;8.48;73.50;96851.22;5102304;28;19926;-60
2024/01/04 11:29:37;;;;;;;;;;;;;;;8.53;73.83;96849.13;5107929;28;20489;-59
2024/01/04 11:32:28;;;;;;;;;;;;;;;8.34;74.60;96843.25;5103646;28;20006;-59
2024/01/04 11:35:16;;;;;;;;;;;;;;;8.50;74.19;96843.56;5112158;27;19919;-59
2024/01/04 11:38:06;;;;;;;;;;;;;;;8.46;73.23;96839.91;5106075;27;19923;-60
2024/01/04 11:40:54;;;;;;;;;;;;;;;8.56;73.40;96842.25;5108540;27;19926;-60
2024/01/04 11:43:44;;;;;;;;;;;;;;;8.63;72.64;96837.16;5097375;28;20365;-61
2024/01/04 11:46:33;;;;;;;;;;;;;;;8.54;72.31;96830.97;5091652;28;19920;-60
2024/01/04 11:49:23;;;;;;;;;;;;;;;8.80;72.42;96825.44;5107183;28;19926;-62
2024/01/04 11:52:13;;;;;;;;;;;;;;;8.89;71.59;96834.31;5113222;27;19926;-60
2024/01/04 11:55:01;;;;;;;;;;;;;;;8.72;70.23;96832.47;5102138;28;19920;-60
2024/01/04 11:57:50;;;;;;;;;;;;;;;8.71;70.85;96828.19;5101066;28;20084;-60
2024/01/04 12:00:39;;;;;;;;;;;;;;;8.76;70.35;96830.72;5106591;28;20001;-62
2024/01/04 12:03:28;;;;;;;;;;;;;;;8.79;69.89;96835.50;5108842;28;19924;-60
2024/01/04 12:06:17;;;;;;;;;;;;;;;8.84;70.20;96832.59;5102436;27;19931;-60
2024/01/04 12:09:06;;;;;;;;;;;;;;;8.74;70.33;96835.66;5102324;28;19924;-60
2024/01/04 12:11:55;;;;;;;;;;;;;;;8.63;70.38;96837.94;5103518;27;19973;-60
2024/01/04 12:14:44;;;;;;;;;;;;;;;8.71;69.35;96838.22;5102635;28;20014;-60
2024/01/04 12:17:33;;;;;;;;;;;;;;;8.63;69.64;96848.78;5100779;27;19919;-60
2024/01/04 12:20:22;;;;;;;;;;;;;;;8.67;70.19;96843.47;5100774;28;19919;-61
2024/01/04 12:23:10;;;;;;;;;;;;;;;8.80;69.03;96845.19;5101611;28;20301;-60
2024/01/04 12:25:59;;;;;;;;;;;;;;;8.76;69.06;96857.00;5097351;28;20007;-60
2024/01/04 12:28:47;;;;;;;;;;;;;;;8.63;68.72;96856.09;5100970;28;20284;-60
2024/01/04 12:31:36;;;;;;;;;;;;;;;8.60;69.50;96859.44;5100777;27;19924;-60
2024/01/04 12:34:25;;;;;;;;;;;;;;;8.61;69.59;96861.81;5093165;28;20003;-60
2024/01/04 12:37:16;;;;;;;;;;;;;;;8.70;69.49;96858.31;5105808;28;19927;-60
2024/01/04 12:40:06;;;;;;;;;;;;;;;8.74;69.47;96865.47;5099832;27;19924;-60
2024/01/04 12:42:58;;;;;;;;;;;;;;;8.62;69.30;96868.03;5106649;27;20443;-60
2024/01/04 12:45:46;;;;;;;;;;;;;;;8.74;69.76;96865.47;5102162;28;19971;-62
2024/01/04 12:48:34;;;;;;;;;;;;;;;8.65;68.97;96875.53;5095348;28;19920;-60
2024/01/04 12:51:29;;;;;;;;;;;;;;;8.76;68.54;96873.25;5102493;28;19927;-61
2024/01/04 12:54:17;;;;;;;;;;;;;;;8.70;68.07;96875.34;5093514;28;19957;-61
2024/01/04 12:57:10;;;;;;;;;;;;;;;8.73;68.45;96884.72;5101946;28;20379;-60
2024/01/04 12:59:59;;;;;;;;;;;;;;;8.71;68.24;96876.94;5102680;28;19928;-61
2024/01/04 13:02:51;;;;;;;;;;;;;;;8.63;68.09;96878.56;5103763;27;19928;-60
2024/01/04 13:05:39;;;;;;;;;;;;;;;8.79;67.85;96883.41;5104852;28;20335;-61
2024/01/04 13:08:32;;;;;;;;;;;;;;;8.75;67.30;96883.28;5101040;28;20053;-61
2024/01/04 13:11:20;;;;;;;;;;;;;;;8.70;67.05;96885.38;5104607;28;19935;-61
2024/01/04 13:14:11;;;;;;;;;;;;;;;8.97;67.34;96889.56;5097941;28;19919;-61
2024/01/04 13:16:59;;;;;;;;;;;;;;;9.04;66.93;96885.22;5100067;28;19924;-61
2024/01/04 13:19:47;;;;;;;;;;;;;;;9.12;66.68;96887.13;5105138;28;19953;-61
2024/01/04 13:22:39;;;;;;;;;;;;;;;9.13;66.40;96893.31;5101536;28;19926;-61
2024/01/04 13:25:28;;;;;;;;;;;;;;;9.01;66.03;96899.44;5086052;28;20068;-62
2024/01/04 13:28:16;;;;;;;;;;;;;;;9.07;66.24;96903.56;5094176;28;19928;-63
2024/01/04 13:31:05;;;;;;;;;;;;;;;8.98;65.44;96899.28;5099949;28;20049;-61
2024/01/04 13:33:54;;;;;;;;;;;;;;;9.07;65.99;96906.25;5097817;28;19920;-63
2024/01/04 13:36:42;;;;;;;;;;;;;;;9.01;66.11;96907.56;5100829;28;19932;-60
2024/01/04 13:39:30;;;;;;;;;;;;;;;9.10;65.44;96904.81;5096195;28;20368;-61
2024/01/04 13:42:20;;;;;;;;;;;;;;;9.08;65.51;96912.47;5098095;28;20017;-60
2024/01/04 13:45:10;;;;;;;;;;;;;;;8.84;65.61;96919.28;5097494;28;19979;-60
2024/01/04 13:47:59;;;;;;;;;;;;;;;9.01;65.58;96917.63;5094368;28;19920;-60
2024/01/04 13:50:48;;;;;;;;;;;;;;;8.91;65.31;96924.97;5099135;28;20364;-60
2024/01/04 13:53:37;;;;;;;;;;;;;;;8.99;65.39;96925.25;5100025;28;19931;-61
2024/01/04 13:56:26;;;;;;;;;;;;;;;8.89;65.87;96938.06;5084220;28;19920;-61
2024/01/04 13:59:18;;;;;;;;;;;;;;;8.82;66.07;96937.75;5098617;28;19927;-60
2024/01/04 14:02:07;;;;;;;;;;;;;;;8.81;65.76;96944.28;5098211;28;19935;-61
2024/01/04 14:04:55;;;;;;;;;;;;;;;8.74;65.55;96944.00;5102711;28;19927;-61
2024/01/04 14:07:43;;;;;;;;;;;;;;;8.77;65.43;96937.91;5104368;27;19927;-61
2024/01/04 14:10:31;;;;;;;;;;;;;;;8.60;65.80;96946.09;5111417;28;19942;-60
2024/01/04 14:13:19;;;;;;;;;;;;;;;8.77;65.97;96937.13;5107459;27;19919;-61
2024/01/04 14:16:08;;;;;;;;;;;;;;;8.86;65.19;96944.09;5115585;27;20387;-60
2024/01/04 14:18:56;;;;;;;;;;;;;;;8.99;65.02;96944.22;5105634;27;19919;-60
2024/01/04 14:21:44;;;;;;;;;;;;;;;8.87;65.43;96944.91;5106308;27;19943;-61
2024/01/04 14:24:33;;;;;;;;;;;;;;;9.03;64.89;96953.28;5105532;27;20383;-60
2024/01/04 14:27:21;;;;;;;;;;;;;;;9.01;64.80;96952.84;5104026;28;19928;-61
2024/01/04 14:30:10;;;;;;;;;;;;;;;8.95;64.70;96954.09;5104630;28;20000;-61
2024/01/04 14:33:00;;;;;;;;;;;;;;;8.94;64.85;96961.44;5104061;27;19939;-61
2024/01/04 14:35:53;;;;;;;;;;;;;;;8.90;64.87;96964.03;5108312;27;19927;-61
2024/01/04 14:38:41;;;;;;;;;;;;;;;9.02;65.24;96965.25;5107350;28;19962;-61
2024/01/04 14:41:29;;;;;;;;;;;;;;;9.12;64.97;96967.59;5103253;28;19920;-61
2024/01/04 14:44:17;;;;;;;;;;;;;;;9.13;64.14;96980.03;5106927;28;19920;-61
2024/01/04 14:47:05;;;;;;;;;;;;;;;9.13;64.14;96986.25;5097093;27;19920;-61
2024/01/04 14:49:56;;;;;;;;;;;;;;;9.10;64.30;96984.16;5101432;27;19940;-61
2024/01/04 14:52:45;;;;;;;;;;;;;;;8.99;64.25;96985.66;5108106;28;20061;-60